Time;durP1;ratioP1;P1;durP2;ratioP2;P2;SDS_P1;SDS_P2;PMS_P1;PMS_P2;Temp;Humidity;BMP_temperature;BMP_pressure;BME280_temperature;BME280_humidity;BME280_pressure;Samples;Min_cycle;Max_cycle;Signal;HPM_P1;HPM_P2
2023/04/05 00:01:12;;;;;;;5.00;4.30;;;2.70;99.90;;;-141.84;58.49;19267.16;5051153;28;20230;-53
2023/04/05 00:03:41;;;;;;;6.93;5.20;;;2.70;99.90;;;-141.84;59.15;19261.06;5066419;28;20252;-53
2023/04/05 00:06:11;;;;;;;5.97;4.93;;;2.70;99.90;;;-141.84;58.84;19257.00;5070562;28;20233;-51
2023/04/05 00:08:40;;;;;;;6.50;5.37;;;2.80;99.90;;;-141.84;58.80;19263.09;5070921;28;20229;-49
2023/04/05 00:11:08;;;;;;;8.37;5.73;;;2.90;99.90;;;-141.84;59.13;19244.81;5070590;28;20219;-51
2023/04/05 00:13:37;;;;;;;7.37;5.70;;;2.90;99.90;;;-141.84;59.41;19246.84;5084436;28;20668;-52
2023/04/05 00:16:07;;;;;;;6.77;5.47;;;2.90;99.90;;;-141.84;59.94;19240.75;5090815;28;20742;-52
2023/04/05 00:18:37;;;;;;;9.63;6.30;;;2.80;99.90;;;-141.84;60.42;19254.97;5090158;28;20230;-51
2023/04/05 00:21:06;;;;;;;9.43;6.10;;;2.80;99.90;;;-141.84;60.14;19248.88;5070191;28;20224;-53
2023/04/05 00:23:37;;;;;;;7.63;5.83;;;2.90;99.90;;;-141.84;60.11;19218.41;5070180;28;20770;-53
2023/04/05 00:26:05;;;;;;;7.70;6.20;;;2.80;99.90;;;-141.84;59.76;19240.75;5055693;28;20198;-53
2023/04/05 00:28:34;;;;;;;7.60;5.83;;;2.80;99.90;;;-141.84;59.45;19222.47;5050986;28;20213;-53
2023/04/05 00:31:02;;;;;;;7.87;5.90;;;2.80;99.90;;;-141.84;59.06;19240.75;5050479;28;20253;-57
2023/04/05 00:33:32;;;;;;;6.27;5.30;;;2.80;99.90;;;-141.84;59.10;19218.41;5050432;28;20222;-52
2023/04/05 00:36:10;;;;;;;7.23;5.30;;;2.80;99.90;;;-141.84;59.34;19216.38;5059397;28;20224;-51
2023/04/05 00:38:39;;;;;;;6.53;5.60;;;2.70;99.90;;;-141.84;59.76;19252.94;5070195;28;20564;-51
2023/04/05 00:41:07;;;;;;;6.90;5.17;;;2.70;99.90;;;-141.84;59.86;19242.78;5070020;28;20205;-53
2023/04/05 00:43:36;;;;;;;8.47;5.37;;;2.70;99.90;;;-141.84;60.16;19204.19;5070844;28;20296;-55
2023/04/05 00:46:05;;;;;;;7.43;5.50;;;2.70;99.90;;;-141.84;60.32;19230.59;5070358;28;20236;-52
2023/04/05 00:48:35;;;;;;;6.97;5.20;;;2.80;99.90;;;-141.84;60.06;19208.25;5070090;28;20232;-51
2023/04/05 00:51:08;;;;;;;6.73;5.10;;;2.80;99.90;;;-141.84;59.96;19261.06;5070268;28;20613;-55
2023/04/05 00:53:37;;;;;;;7.47;5.43;;;2.80;99.90;;;-141.84;59.79;19228.56;5070375;28;20229;-53
2023/04/05 00:56:06;;;;;;;7.33;5.30;;;2.80;99.90;;;-141.84;59.87;19236.69;5070149;28;20228;-54
2023/04/05 00:58:34;;;;;;;6.47;5.10;;;2.80;99.90;;;-141.84;60.02;19261.06;5066406;28;20196;-54
2023/04/05 01:01:12;;;;;;;5.50;4.93;;;2.80;99.90;;;-141.84;60.25;19222.47;5050163;28;20236;-53
2023/04/05 01:03:52;;;;;;;5.63;5.03;;;2.80;99.90;;;-141.84;60.38;19242.78;5061541;28;20299;-54
2023/04/05 01:06:53;;;;;;;6.10;4.63;;;2.80;99.90;;;-141.84;59.85;19222.47;5068773;28;20307;-55
2023/04/05 01:09:42;;;;;;;7.50;4.80;;;2.80;99.90;;;-141.84;59.86;19228.56;5079297;28;20220;-53
2023/04/05 01:12:17;;;;;;;8.20;5.13;;;2.80;99.90;;;-141.84;60.11;19228.56;5090246;28;20228;-65
2023/04/05 01:14:48;;;;;;;6.03;4.80;;;2.80;99.90;;;-141.84;59.70;19228.56;5090529;28;20244;-63
2023/04/05 01:17:20;;;;;;;7.20;5.70;;;2.80;99.90;;;-141.84;59.64;19218.41;5077481;28;20204;-64
2023/04/05 01:19:53;;;;;;;6.50;5.27;;;2.80;99.90;;;-141.84;59.86;19230.59;5069734;28;20209;-64
2023/04/05 01:23:24;;;;;;;8.47;5.10;;;2.70;99.90;;;-141.84;59.57;19232.63;5069677;28;20232;-63
2023/04/05 01:26:32;;;;;;;10.87;5.27;;;2.80;99.90;;;-141.84;59.59;19222.47;5022444;28;20704;-63
2023/04/05 01:29:34;;;;;;;7.63;5.33;;;2.80;99.90;;;-141.84;59.36;19254.97;5050060;28;20232;-63
2023/04/05 01:32:15;;;;;;;6.50;5.53;;;2.80;99.90;;;-141.84;60.25;19244.81;5050356;28;20215;-63
2023/04/05 01:35:02;;;;;;;8.00;5.33;;;2.90;99.90;;;-141.84;60.58;19216.38;5049903;28;20723;-64
2023/04/05 01:37:35;;;;;;;7.20;5.23;;;2.80;99.90;;;-141.84;59.72;19261.06;5049977;28;20220;-63
2023/04/05 01:40:05;;;;;;;6.57;5.77;;;2.80;99.90;;;-141.84;60.18;19257.00;5064197;28;20228;-64
2023/04/05 01:42:33;;;;;;;6.93;5.50;;;2.80;99.90;;;-141.84;59.97;19283.44;5069355;28;20307;-63
2023/04/05 01:45:03;;;;;;;7.47;5.17;;;2.80;99.90;;;-141.84;60.36;19208.25;5069512;28;20715;-63
2023/04/05 01:47:31;;;;;;;6.63;5.10;;;2.80;99.90;;;-141.84;60.42;19212.31;5069768;28;20577;-64
2023/04/05 01:50:00;;;;;;;8.87;5.33;;;2.80;99.90;;;-141.84;60.41;19240.75;5070033;28;20209;-64
2023/04/05 01:52:28;;;;;;;6.47;5.50;;;2.70;99.90;;;-141.84;60.89;19271.25;5067113;28;20739;-64
2023/04/05 01:54:56;;;;;;;7.03;6.30;;;2.80;99.90;;;-141.84;61.41;19230.59;5049251;28;20225;-64
2023/04/05 01:57:24;;;;;;;7.50;5.37;;;2.80;99.90;;;-141.84;61.11;19240.75;5052312;28;20221;-63
2023/04/05 01:59:52;;;;;;;7.03;5.40;;;2.80;99.90;;;-141.84;61.90;19212.31;5064032;28;20228;-64
2023/04/05 02:02:22;;;;;;;7.40;5.57;;;2.80;99.90;;;-141.84;62.32;19204.19;5073119;28;20202;-65
2023/04/05 02:04:50;;;;;;;6.90;6.17;;;2.80;99.90;;;-141.84;62.11;19196.06;5076322;28;20211;-63
2023/04/05 02:07:18;;;;;;;7.13;6.20;;;2.80;99.90;;;-141.84;62.08;19220.44;5072903;28;20235;-65
2023/04/05 02:09:46;;;;;;;7.40;6.23;;;2.80;99.90;;;-141.84;62.55;19198.09;5073163;28;20235;-64
2023/04/05 02:12:14;;;;;;;7.27;6.50;;;2.80;99.90;;;-141.84;62.70;19200.13;5072778;28;20238;-64
2023/04/05 02:14:42;;;;;;;7.87;6.33;;;2.80;99.90;;;-141.84;62.84;19216.38;5073099;28;20235;-63
2023/04/05 02:17:11;;;;;;;7.57;6.40;;;2.80;99.90;;;-141.84;61.89;19242.78;5072686;28;20267;-62
2023/04/05 02:19:41;;;;;;;6.63;5.90;;;2.80;99.90;;;-141.84;61.53;19226.53;5073558;28;20207;-64
2023/04/05 02:22:09;;;;;;;6.60;5.90;;;2.80;99.90;;;-141.84;61.59;19242.78;5072873;28;20582;-65
2023/04/05 02:24:37;;;;;;;8.83;5.40;;;2.70;99.90;;;-141.84;61.17;19236.69;5069883;28;20240;-63
2023/04/05 02:27:07;;;;;;;5.93;5.33;;;2.70;99.90;;;-141.84;61.09;19216.38;5052626;28;20613;-64
2023/04/05 02:29:35;;;;;;;5.53;5.03;;;2.80;99.90;;;-141.84;61.28;19238.72;5052769;28;20224;-66
2023/04/05 02:32:03;;;;;;;7.63;5.80;;;2.80;99.90;;;-141.84;62.68;19224.50;5067815;28;20207;-65
2023/04/05 02:34:32;;;;;;;6.93;5.90;;;2.70;99.90;;;-141.84;63.71;19218.41;5073138;28;20286;-65
2023/04/05 02:37:01;;;;;;;7.37;6.47;;;2.70;99.90;;;-141.84;64.29;19252.94;5072225;28;20316;-64
2023/04/05 02:39:30;;;;;;;7.80;6.53;;;2.70;99.90;;;-141.84;64.65;19192.00;5072118;28;20733;-65
2023/04/05 02:41:58;;;;;;;7.90;7.10;;;2.70;99.90;;;-141.84;65.21;19202.16;5072261;28;20261;-64
2023/04/05 02:44:28;;;;;;;10.70;7.27;;;2.60;99.90;;;-141.84;65.49;19183.84;5072567;28;20603;-64
2023/04/05 02:46:56;;;;;;;7.10;6.20;;;2.60;99.90;;;-141.84;65.65;19216.38;5073021;28;20207;-64
2023/04/05 02:49:24;;;;;;;7.90;6.50;;;2.60;99.90;;;-141.84;65.52;19192.00;5072373;28;20221;-66
2023/04/05 02:51:54;;;;;;;8.33;6.90;;;2.50;99.90;;;-141.84;65.69;19194.03;5072061;28;20234;-65
2023/04/05 02:54:24;;;;;;;8.57;6.50;;;2.40;99.90;;;-141.84;65.77;19200.13;5054243;28;20225;-63
2023/04/05 02:56:53;;;;;;;7.20;5.90;;;2.40;99.90;;;-141.84;65.62;19187.91;5069429;28;20596;-65
2023/04/05 02:59:21;;;;;;;7.37;5.73;;;2.50;99.90;;;-141.84;65.55;19177.75;5072133;28;20193;-64
2023/04/05 03:01:50;;;;;;;9.20;5.97;;;2.40;99.90;;;-141.84;65.64;19189.97;5081442;28;20709;-64
2023/04/05 03:04:18;;;;;;;8.23;6.37;;;2.30;99.90;;;-141.84;65.81;19204.19;5092259;28;20223;-65
2023/04/05 03:06:49;;;;;;;9.47;5.50;;;2.30;99.90;;;-141.84;65.88;19196.06;5076650;28;20232;-64
2023/04/05 03:09:17;;;;;;;6.97;6.10;;;2.30;99.90;;;-141.84;66.21;19185.88;5072031;28;20224;-64
2023/04/05 03:11:47;;;;;;;11.43;6.90;;;2.20;99.90;;;-141.84;65.87;19198.09;5072174;28;20239;-65
2023/04/05 03:14:15;;;;;;;8.03;7.13;;;2.30;99.90;;;-141.84;65.86;19177.75;5072190;28;20645;-64
2023/04/05 03:16:43;;;;;;;8.40;6.23;;;2.30;99.90;;;-141.84;66.23;19173.69;5072264;28;20696;-64
2023/04/05 03:19:11;;;;;;;8.33;6.97;;;2.30;99.90;;;-141.84;66.15;19151.34;5065935;28;20709;-66
2023/04/05 03:21:40;;;;;;;7.77;6.67;;;2.20;99.90;;;-141.84;66.06;19196.06;5051442;28;20233;-64
2023/04/05 03:24:08;;;;;;;8.43;6.10;;;2.20;99.90;;;-141.84;65.95;19171.66;5051608;28;20323;-65
2023/04/05 03:26:36;;;;;;;7.30;6.00;;;2.20;99.90;;;-141.84;66.41;19194.03;5051820;28;20232;-63
2023/04/05 03:29:06;;;;;;;6.60;6.00;;;2.20;99.90;;;-141.84;66.21;19177.75;5051577;28;20205;-64
2023/04/05 03:31:34;;;;;;;8.47;6.10;;;2.10;99.90;;;-141.84;66.51;19163.53;5052103;28;20208;-64
2023/04/05 03:34:02;;;;;;;7.07;5.83;;;2.10;99.90;;;-141.84;66.96;19179.78;5051752;28;20229;-65
2023/04/05 03:36:40;;;;;;;7.53;6.27;;;2.10;99.90;;;-141.84;66.42;19147.28;5064025;28;20696;-64
2023/04/05 03:39:09;;;;;;;7.37;6.33;;;2.10;99.90;;;-141.84;66.54;19163.53;5071580;28;20251;-64
2023/04/05 03:41:38;;;;;;;8.33;6.43;;;2.10;99.90;;;-141.84;66.26;19181.81;5071469;28;20224;-64
2023/04/05 03:44:08;;;;;;;8.37;6.60;;;2.20;99.90;;;-141.84;65.58;19198.09;5071665;28;20205;-63
2023/04/05 03:46:37;;;;;;;7.30;6.47;;;2.20;99.90;;;-141.84;66.14;19161.50;5071619;28;20698;-64
2023/04/05 03:49:06;;;;;;;7.90;6.57;;;2.10;99.90;;;-141.84;66.52;19204.19;5071264;28;20267;-65
2023/04/05 03:51:34;;;;;;;7.83;6.70;;;2.20;99.90;;;-141.84;66.29;19139.16;5071048;28;20319;-65
2023/04/05 03:54:02;;;;;;;8.17;6.50;;;2.20;99.90;;;-141.84;66.52;19165.56;5056232;28;20236;-64
2023/04/05 03:56:30;;;;;;;8.03;5.97;;;2.20;99.90;;;-141.84;66.44;19196.06;5051193;28;20237;-65
2023/04/05 03:58:58;;;;;;;8.37;6.20;;;2.20;99.90;;;-141.84;65.70;19173.69;5076455;28;20196;-63
2023/04/05 04:01:28;;;;;;;7.23;6.00;;;2.20;99.90;;;-141.84;65.59;19185.88;5070909;28;20228;-64
2023/04/05 04:03:56;;;;;;;7.30;5.83;;;2.20;99.90;;;-141.84;66.17;19171.66;5070700;28;20221;-64
2023/04/05 04:06:25;;;;;;;7.13;5.50;;;2.20;99.90;;;-141.84;65.63;19204.19;5070224;28;20228;-65
2023/04/05 04:08:53;;;;;;;7.77;6.13;;;2.20;99.90;;;-141.84;65.60;19208.25;5070698;28;20642;-64
2023/04/05 04:11:21;;;;;;;5.93;5.20;;;2.30;99.90;;;-141.84;64.46;19189.97;5070728;28;20212;-64
2023/04/05 04:13:50;;;;;;;7.43;5.60;;;2.30;99.90;;;-141.84;64.71;19202.16;5071169;28;20205;-65
2023/04/05 04:16:18;;;;;;;6.33;5.37;;;2.30;99.90;;;-141.84;64.12;19171.66;5070241;28;20658;-64
2023/04/05 04:18:48;;;;;;;7.73;5.40;;;2.30;99.90;;;-141.84;64.77;19196.06;5068773;28;20282;-64
2023/04/05 04:21:18;;;;;;;7.83;6.43;;;2.30;99.90;;;-141.84;65.28;19204.19;5051637;28;20323;-63
2023/04/05 04:23:46;;;;;;;8.17;5.83;;;2.30;99.90;;;-141.84;65.27;19175.72;5051483;28;20224;-64
2023/04/05 04:26:14;;;;;;;7.77;5.60;;;2.30;99.90;;;-141.84;65.44;19149.31;5051784;28;20197;-64
2023/04/05 04:28:43;;;;;;;7.97;6.53;;;2.30;99.90;;;-141.84;65.47;19171.66;5052201;28;20204;-64
2023/04/05 04:31:14;;;;;;;7.63;5.77;;;2.30;99.90;;;-141.84;64.95;19151.34;5051658;28;20607;-65
2023/04/05 04:33:42;;;;;;;9.63;5.00;;;2.20;99.90;;;-141.84;64.63;19153.38;5051743;28;20245;-64
2023/04/05 04:36:13;;;;;;;7.00;5.27;;;2.20;99.90;;;-141.84;63.50;19171.66;5070891;28;20233;-64
2023/04/05 04:38:45;;;;;;;9.53;6.40;;;2.30;99.90;;;-141.84;63.44;19155.41;5071546;28;20223;-64
2023/04/05 04:41:16;;;;;;;7.73;5.17;;;2.20;99.90;;;-141.84;63.61;19149.31;5071372;28;20197;-64
2023/04/05 04:43:44;;;;;;;8.10;5.70;;;2.20;99.90;;;-141.84;63.03;19179.78;5072054;28;20215;-64
2023/04/05 04:46:17;;;;;;;6.87;6.10;;;2.20;99.90;;;-141.84;64.15;19202.16;5071332;28;20224;-65
2023/04/05 04:48:47;;;;;;;8.20;6.97;;;2.20;99.90;;;-141.84;64.87;19155.41;5071348;28;20224;-64
2023/04/05 04:51:16;;;;;;;7.77;6.37;;;2.20;99.90;;;-141.84;65.28;19153.38;5071003;28;20227;-64
2023/04/05 04:53:44;;;;;;;8.33;6.57;;;2.20;99.90;;;-141.84;64.46;19204.19;5066507;28;20714;-64
2023/04/05 04:56:12;;;;;;;7.37;6.47;;;2.20;99.90;;;-141.84;64.58;19177.75;5075397;28;20217;-63
2023/04/05 04:58:41;;;;;;;8.77;7.73;;;2.20;99.90;;;-141.84;65.23;19198.09;5071688;28;20212;-64
2023/04/05 05:01:09;;;;;;;8.03;7.23;;;2.30;99.90;;;-141.84;65.65;19202.16;5070873;28;20239;-64
2023/04/05 05:03:38;;;;;;;8.10;7.30;;;2.20;99.90;;;-141.84;65.55;19202.16;5071188;28;20232;-65
2023/04/05 05:06:07;;;;;;;7.77;6.97;;;2.20;99.90;;;-141.84;66.07;19187.91;5070653;28;20712;-64
2023/04/05 05:08:37;;;;;;;9.10;8.20;;;2.20;99.90;;;-141.84;65.87;19185.88;5071466;28;20576;-64
2023/04/05 05:11:07;;;;;;;8.07;7.07;;;2.30;99.90;;;-141.84;65.91;19194.03;5070875;28;20736;-63
2023/04/05 05:13:36;;;;;;;9.10;6.87;;;2.30;99.90;;;-141.84;65.81;19159.47;5071510;28;20228;-64
2023/04/05 05:16:05;;;;;;;8.60;6.63;;;2.30;99.90;;;-141.84;65.46;19206.22;5070314;28;20230;-64
2023/04/05 05:18:33;;;;;;;9.23;6.67;;;2.30;99.90;;;-141.84;65.48;19145.25;5070021;28;20225;-64
2023/04/05 05:21:01;;;;;;;7.40;5.97;;;2.30;99.90;;;-141.84;65.95;19177.75;5050488;28;20236;-64
2023/04/05 05:23:30;;;;;;;6.83;5.90;;;2.40;99.90;;;-141.84;65.93;19196.06;5050751;28;20641;-63
2023/04/05 05:26:00;;;;;;;7.63;6.17;;;2.40;99.90;;;-141.84;65.83;19185.88;5051392;28;20200;-63
2023/04/05 05:28:28;;;;;;;8.27;6.13;;;2.40;99.90;;;-141.84;65.43;19165.56;5050651;28;20284;-64
2023/04/05 05:30:56;;;;;;;7.77;6.63;;;2.50;99.90;;;-141.84;65.26;19155.41;5058599;28;20227;-64
2023/04/05 05:33:25;;;;;;;8.13;6.23;;;2.50;99.90;;;-141.84;65.05;19192.00;5075196;28;20228;-63
2023/04/05 05:35:53;;;;;;;6.20;5.50;;;2.50;99.90;;;-141.84;64.21;19177.75;5074877;28;20223;-62
2023/04/05 05:38:22;;;;;;;9.00;6.43;;;2.60;99.90;;;-141.84;64.13;19169.63;5074908;28;20216;-64
2023/04/05 05:40:56;;;;;;;7.37;6.00;;;2.70;99.90;;;-141.84;63.88;19236.69;5075345;28;20205;-65
2023/04/05 05:43:26;;;;;;;6.63;6.03;;;2.80;99.90;;;-141.84;63.52;19204.19;5074670;28;20224;-63
2023/04/05 05:45:54;;;;;;;9.50;7.00;;;2.90;99.90;;;-141.84;63.31;19236.69;5074410;28;20224;-64
2023/04/05 05:48:22;;;;;;;12.40;7.70;;;3.00;99.90;;;-141.84;62.82;19232.63;5074526;28;20723;-63
2023/04/05 05:50:50;;;;;;;10.60;8.10;;;3.10;99.90;;;-141.84;62.82;19212.31;5085244;28;20231;-64
2023/04/05 05:53:19;;;;;;;10.00;7.97;;;3.10;99.90;;;-141.84;62.93;19226.53;5085737;28;20196;-64
2023/04/05 05:55:47;;;;;;;10.80;8.27;;;3.10;99.90;;;-141.84;62.55;19238.72;5074729;28;20206;-64
2023/04/05 05:58:15;;;;;;;8.50;7.27;;;3.20;99.90;;;-141.84;62.35;19236.69;5074086;28;20233;-64
2023/04/05 06:00:45;;;;;;;11.07;7.30;;;3.20;99.90;;;-141.84;62.32;19250.91;5073985;28;20304;-62
2023/04/05 06:03:17;;;;;;;9.90;7.07;;;3.20;99.90;;;-141.84;62.56;19261.06;5074511;28;20759;-63
2023/04/05 06:05:52;;;;;;;7.77;6.90;;;3.30;99.90;;;-141.84;61.48;19295.63;5074006;28;20222;-64
2023/04/05 06:08:20;;;;;;;6.90;6.07;;;3.50;99.90;;;-141.84;60.94;19301.72;5074468;28;20185;-63
2023/04/05 06:10:49;;;;;;;6.80;6.10;;;3.60;99.90;;;-141.84;59.78;19346.44;5074744;28;20672;-63
2023/04/05 06:13:17;;;;;;;7.97;5.87;;;3.70;99.90;;;-141.84;59.73;19301.72;5074171;28;20257;-64
2023/04/05 06:15:48;;;;;;;9.17;6.27;;;3.80;99.90;;;-141.84;58.84;19324.06;5073901;28;20246;-64
2023/04/05 06:18:16;;;;;;;9.93;6.00;;;3.80;99.90;;;-141.84;59.10;19338.28;5073960;28;20744;-63
2023/04/05 06:20:44;;;;;;;6.83;6.00;;;3.90;99.90;;;-141.84;59.08;19281.41;5055369;28;20231;-63
2023/04/05 06:23:13;;;;;;;7.37;6.10;;;4.00;99.90;;;-141.84;58.15;19344.41;5053816;28;20215;-63
2023/04/05 06:25:43;;;;;;;5.93;5.37;;;4.10;99.90;;;-141.84;56.96;19340.31;5053440;28;20222;-63
2023/04/05 06:28:12;;;;;;;5.80;5.00;;;4.40;99.90;;;-141.84;55.64;19380.97;5068142;28;20558;-64
2023/04/05 06:30:40;;;;;;;6.97;5.53;;;4.40;99.90;;;-141.84;55.41;19403.31;5072538;28;20597;-64
2023/04/05 06:33:10;;;;;;;7.20;5.37;;;4.40;99.90;;;-141.84;55.00;19346.44;5072661;28;20867;-65
2023/04/05 06:35:38;;;;;;;7.20;5.17;;;4.40;99.90;;;-141.84;55.09;19348.47;5072465;28;20247;-65
2023/04/05 06:38:06;;;;;;;5.90;4.70;;;4.40;99.90;;;-141.84;55.33;19346.44;5072137;28;20721;-65
2023/04/05 06:40:34;;;;;;;7.30;5.27;;;4.30;99.90;;;-141.84;55.06;19372.84;5073164;28;20199;-64
2023/04/05 06:43:03;;;;;;;8.63;5.40;;;4.60;99.90;;;-141.84;55.24;19383.00;5071927;28;20253;-64
2023/04/05 06:45:31;;;;;;;7.37;4.90;;;4.50;99.90;;;-141.84;55.24;19383.00;5072571;28;20230;-63
2023/04/05 06:47:59;;;;;;;7.67;5.70;;;4.60;99.90;;;-141.84;54.91;19378.94;5091003;28;20230;-65
2023/04/05 06:50:29;;;;;;;7.80;5.53;;;4.80;99.90;;;-141.84;54.39;19389.09;5092329;28;20276;-63
2023/04/05 06:52:57;;;;;;;5.57;5.00;;;5.00;99.90;;;-141.84;53.58;19464.28;5086988;28;20286;-64
2023/04/05 06:55:25;;;;;;;7.40;5.67;;;5.20;99.90;;;-141.84;53.75;19443.97;5071889;28;20228;-64
2023/04/05 06:57:54;;;;;;;6.20;5.00;;;5.30;99.90;;;-141.84;53.70;19437.88;5072291;28;20312;-64
2023/04/05 07:00:22;;;;;;;7.70;5.03;;;5.30;99.90;;;-141.84;54.14;19466.31;5072339;28;20223;-63
2023/04/05 07:02:50;;;;;;;6.70;5.20;;;5.20;99.90;;;-141.84;54.33;19415.50;5072284;28;20246;-65
2023/04/05 07:05:19;;;;;;;7.60;5.03;;;5.00;99.90;;;-141.84;54.23;19401.28;5072274;28;20284;-63
2023/04/05 07:07:48;;;;;;;5.60;4.70;;;5.00;99.90;;;-141.84;54.61;19374.88;5072534;28;20198;-64
2023/04/05 07:10:16;;;;;;;6.50;5.37;;;5.00;99.90;;;-141.84;54.48;19401.28;5072269;28;20231;-65
2023/04/05 07:12:46;;;;;;;7.27;5.17;;;5.10;99.90;;;-141.84;54.08;19419.59;5071932;28;20238;-65
2023/04/05 07:15:14;;;;;;;7.43;5.13;;;5.20;99.90;;;-141.84;54.27;19470.38;5067400;28;20232;-63
2023/04/05 07:17:42;;;;;;;10.20;6.20;;;5.20;99.90;;;-141.84;54.22;19450.06;5051650;28;20233;-64
2023/04/05 07:20:13;;;;;;;8.47;5.60;;;5.20;99.90;;;-141.84;54.25;19464.28;5051762;28;20211;-64
2023/04/05 07:22:41;;;;;;;6.80;5.23;;;5.20;99.90;;;-141.84;54.86;19415.50;5053130;28;20676;-64
2023/04/05 07:25:11;;;;;;;7.23;5.20;;;5.30;99.90;;;-141.84;55.12;19415.50;5025821;28;1129991;-63
2023/04/05 07:27:39;;;;;;;6.87;5.10;;;5.30;99.90;;;-141.84;53.73;19435.84;5052595;28;20260;-65
2023/04/05 07:30:09;;;;;;;5.67;4.70;;;5.20;99.90;;;-141.84;53.76;19395.19;5052879;28;20622;-64
2023/04/05 07:32:37;;;;;;;5.47;4.50;;;5.20;99.90;;;-141.84;53.32;19427.72;5067521;28;20224;-62
2023/04/05 07:35:07;;;;;;;5.97;4.53;;;5.30;99.90;;;-141.84;53.56;19423.66;5072683;28;20654;-62
2023/04/05 07:37:36;;;;;;;6.33;4.10;;;5.30;99.90;;;-141.84;53.67;19429.75;5072664;28;20197;-63
2023/04/05 07:40:06;;;;;;;5.37;4.33;;;5.30;99.90;;;-141.84;53.47;19427.72;5072370;28;20224;-63
2023/04/05 07:42:35;;;;;;;5.27;4.47;;;5.20;99.90;;;-141.84;53.19;19448.03;5072024;28;20796;-63
2023/04/05 07:45:05;;;;;;;5.10;4.03;;;5.30;99.90;;;-141.84;53.15;19399.25;5070903;28;20226;-65
2023/04/05 07:47:34;;;;;;;5.73;4.03;;;5.40;99.90;;;-141.84;51.78;19441.94;5071003;28;20277;-63
2023/04/05 07:50:02;;;;;;;7.37;4.50;;;5.50;99.90;;;-141.84;51.42;19452.09;5067425;28;20247;-63
2023/04/05 07:52:30;;;;;;;5.77;4.73;;;5.60;99.90;;;-141.84;51.42;19472.41;5061126;28;20231;-64
2023/04/05 07:54:59;;;;;;;5.77;4.40;;;5.70;99.90;;;-141.84;52.15;19464.28;5055869;28;20587;-64
2023/04/05 07:57:27;;;;;;;6.03;4.70;;;5.70;99.90;;;-141.84;52.26;19480.53;5071247;28;20240;-64
2023/04/05 07:59:56;;;;;;;7.43;4.60;;;5.80;99.90;;;-141.84;51.07;19490.72;5071368;28;20223;-64
2023/04/05 08:02:24;;;;;;;6.67;4.03;;;5.90;99.90;;;-141.84;51.17;19490.72;5070477;28;20259;-64
2023/04/05 08:04:53;;;;;;;4.53;3.90;;;6.00;99.90;;;-141.84;50.51;19525.25;5071308;28;20298;-66
2023/04/05 08:07:21;;;;;;;4.20;3.73;;;6.10;99.90;;;-141.84;50.78;19525.25;5070626;28;20716;-65
2023/04/05 08:09:49;;;;;;;4.57;3.90;;;6.20;99.90;;;-141.84;50.45;19525.25;5071060;28;20742;-65
2023/04/05 08:12:17;;;;;;;4.93;4.10;;;6.30;99.90;;;-141.84;50.38;19496.81;5070829;28;20247;-65
2023/04/05 08:14:45;;;;;;;6.13;4.33;;;6.20;99.90;;;-141.84;50.24;19531.34;5071059;28;20239;-64
2023/04/05 08:17:16;;;;;;;5.40;3.97;;;6.30;99.90;;;-141.84;49.49;19537.44;5071121;28;20209;-65
2023/04/05 08:19:44;;;;;;;4.17;3.40;;;6.30;99.90;;;-141.84;49.03;19506.97;5068354;28;20684;-66
2023/04/05 08:22:15;;;;;;;3.33;2.93;;;6.40;99.90;;;-141.84;47.52;19545.56;5065815;28;20221;-64
2023/04/05 08:24:43;;;;;;;4.90;3.93;;;6.40;99.90;;;-141.84;47.39;19539.47;5066723;28;20225;-64
2023/04/05 08:27:11;;;;;;;3.67;3.03;;;6.40;99.90;;;-141.84;47.09;19551.69;5050807;28;20261;-65
2023/04/05 08:29:40;;;;;;;3.77;3.03;;;6.50;99.90;;;-141.84;47.35;19541.50;5050544;28;20758;-63
2023/04/05 08:32:08;;;;;;;6.27;3.50;;;6.60;99.90;;;-141.84;47.68;19594.34;5061931;28;20216;-64
2023/04/05 08:34:38;;;;;;;7.87;3.50;;;6.60;99.90;;;-141.84;46.64;19590.28;5070356;28;20201;-65
2023/04/05 08:37:06;;;;;;;3.97;2.50;;;6.70;99.90;;;-141.84;43.67;19618.75;5069829;28;20261;-64
2023/04/05 08:39:35;;;;;;;4.90;2.40;;;6.70;99.90;;;-141.84;43.10;19596.38;5081247;28;20224;-66
2023/04/05 08:42:11;;;;;;;3.00;2.03;;;6.80;99.90;;;-141.84;42.66;19602.47;5082429;28;20227;-65
2023/04/05 08:44:41;;;;;;;4.50;2.70;;;6.80;99.90;;;-141.84;43.45;19626.88;5069868;28;20220;-64
2023/04/05 08:47:17;;;;;;;5.03;2.87;;;6.90;99.90;;;-141.84;43.74;19622.81;5081332;28;20207;-64
2023/04/05 08:49:47;;;;;;;2.90;2.60;;;7.10;99.90;;;-141.84;42.68;19651.25;5090778;28;20198;-65
2023/04/05 08:52:16;;;;;;;6.07;2.57;;;7.30;99.90;;;-141.84;42.60;19663.44;5075681;28;20228;-65
2023/04/05 08:54:44;;;;;;;3.90;2.20;;;7.40;99.90;;;-141.84;41.44;19730.50;5049980;28;20236;-65
2023/04/05 08:57:14;;;;;;;3.83;2.50;;;7.50;99.90;;;-141.84;40.19;19763.03;5050382;28;20232;-64
2023/04/05 08:59:45;;;;;;;4.13;2.57;;;7.80;99.90;;;-141.84;41.03;19754.91;5050261;28;20225;-64
2023/04/05 09:02:18;;;;;;;4.07;3.00;;;7.90;99.90;;;-141.84;40.72;19756.94;5049912;28;20189;-65
2023/04/05 09:04:48;;;;;;;4.70;2.47;;;7.90;99.90;;;-141.84;41.15;19704.09;5050620;28;20439;-65
2023/04/05 09:07:19;;;;;;;2.53;2.17;;;7.80;99.90;;;-141.84;40.56;19687.84;5069356;28;20643;-67
2023/04/05 09:09:53;;;;;;;2.70;2.17;;;7.60;99.90;;;-141.84;40.82;19651.25;5070298;28;20235;-65
2023/04/05 09:12:23;;;;;;;4.83;2.30;;;7.40;99.90;;;-141.84;40.39;19673.59;5070314;28;20250;-66
2023/04/05 09:14:52;;;;;;;2.53;2.20;;;7.30;99.90;;;-141.84;41.30;19685.81;5069900;28;20221;-65
2023/04/05 09:17:22;;;;;;;3.23;2.10;;;7.30;99.90;;;-141.84;40.81;19665.47;5070390;28;20231;-66
2023/04/05 09:19:52;;;;;;;3.30;2.03;;;7.20;99.90;;;-141.84;41.12;19639.06;5069971;28;20262;-66
2023/04/05 09:22:22;;;;;;;4.23;2.40;;;7.20;99.90;;;-141.84;40.96;19618.75;5068716;28;20228;-64
2023/04/05 09:24:51;;;;;;;2.40;2.00;;;7.10;99.90;;;-141.84;41.07;19635.00;5069464;28;20224;-64
2023/04/05 09:27:20;;;;;;;3.77;2.60;;;6.90;99.90;;;-141.84;42.16;19657.34;5069873;28;20228;-65
2023/04/05 09:29:50;;;;;;;2.80;2.17;;;7.00;99.90;;;-141.84;42.30;19618.75;5069863;28;20221;-65
2023/04/05 09:32:20;;;;;;;2.77;2.10;;;6.80;99.90;;;-141.84;42.27;19614.66;5069658;28;20204;-64
2023/04/05 09:34:48;;;;;;;2.50;2.23;;;6.70;99.90;;;-141.84;43.39;19572.00;5070201;28;20204;-64
2023/04/05 09:37:22;;;;;;;3.30;1.97;;;6.50;99.90;;;-141.84;42.13;19535.41;5069426;28;20225;-65
2023/04/05 09:40:02;;;;;;;3.60;2.20;;;6.30;99.90;;;-141.84;41.83;19535.41;5069496;28;20224;-63
2023/04/05 09:42:43;;;;;;;3.80;2.10;;;6.30;99.90;;;-141.84;42.11;19533.38;5073439;28;20216;-54
2023/04/05 09:45:12;;;;;;;3.40;2.20;;;6.10;99.90;;;-141.84;41.98;19563.88;5089585;28;20230;-55
2023/04/05 09:47:41;;;;;;;4.73;2.20;;;6.10;99.90;;;-141.84;42.12;19504.94;5089762;28;20238;-53
2023/04/05 09:50:20;;;;;;;3.17;1.90;;;6.00;99.90;;;-141.84;41.66;19531.34;5089845;28;20207;-55
2023/04/05 09:52:51;;;;;;;3.83;2.30;;;5.90;99.90;;;-141.84;41.82;19543.53;5066273;28;20675;-54
2023/04/05 09:55:28;;;;;;;3.00;2.13;;;6.00;99.90;;;-141.84;41.70;19569.97;5049313;28;20713;-54
2023/04/05 09:57:57;;;;;;;2.53;2.20;;;6.30;99.90;;;-141.84;40.92;19582.16;5048294;28;20236;-55
2023/04/05 10:00:25;;;;;;;3.43;2.07;;;6.40;99.90;;;-141.84;40.19;19663.44;5049037;28;20229;-53
2023/04/05 10:02:55;;;;;;;3.27;2.53;;;6.70;99.90;;;-141.84;40.84;19606.53;5049661;28;20231;-54
2023/04/05 10:05:27;;;;;;;3.37;1.67;;;6.80;99.90;;;-141.84;39.73;19665.47;5053078;28;20258;-55
2023/04/05 10:07:57;;;;;;;2.97;1.90;;;6.90;99.90;;;-141.84;40.55;19643.13;5070303;28;20288;-56
2023/04/05 10:10:25;;;;;;;2.73;2.10;;;7.00;99.90;;;-141.84;39.78;19691.91;5068740;28;20700;-54
2023/04/05 10:12:54;;;;;;;3.73;2.33;;;7.20;99.90;;;-141.84;39.64;19675.63;5069152;28;20272;-55
2023/04/05 10:15:25;;;;;;;2.60;2.07;;;7.20;99.90;;;-141.84;39.76;19675.63;5069453;28;20239;-57
2023/04/05 10:18:04;;;;;;;3.60;2.17;;;7.30;99.90;;;-141.84;38.92;19744.75;5071356;28;20267;-55
2023/04/05 10:20:39;;;;;;;3.73;1.97;;;7.60;99.90;;;-141.84;38.30;19785.38;5072846;28;20232;-53
2023/04/05 10:23:16;;;;;;;3.10;2.13;;;7.90;99.90;;;-141.84;38.77;19799.63;5072654;28;20208;-56
2023/04/05 10:26:00;;;;;;;3.37;2.00;;;8.10;99.90;;;-141.84;37.92;19830.09;5073126;28;20199;-54